메인 페이지
METAR-TAF:

METAR-TAF

공항 :

Islip, 뉴욕, 미국

위도: 40-47-38N, 경도: 073-06-06W, 고도: 30m

현재 날씨관측

예보는 53분 전, 22:56시(UTC)에 발표되었습니다.
남동8kt
온도 6°C
습도 70%
기압 1015 hPa
시정: 16.1km
고도 4300ft 상공 구름 보통
고도 25000ft 상공 구름 많음

METAR: KISP 312256Z 14008KT 10SM SCT043 BKN250 06/01 A2996 RMK AO2 SLP145 T00560006

시각: 19:49 (23:49 UTC)

예보

예보는 21분 전, 23:28시(UTC)에 발표되었습니다.
예보 대상 시간: 01일 00시부터 01일 24시까지 (UTC)
남동8kt
시정: 10km
고도 4500ft 상공 구름 보통
고도 25000ft 상공 구름 많음
01일 0300시부터 (UTC)
6kt
시정: 10km
고도 3000ft 상공 구름 보통
고도 15000ft 상공 구름 많음
01일 0600시부터 (UTC)
동북동7kt
시정: 10km
고도 4000ft 상공 구름 보통
고도 7000ft 상공 구름 많음
01일 0700시부터 (UTC)
북북동9kt
시정: 10km
고도 2500ft 상공 구름 많음
01일 1300시부터 (UTC)
북북동12kt
시정: 10km
고도 4000ft 상공 구름 많음
01일 1600시부터 (UTC)
북북동12kt, 순간 최대 풍속 19kt
시정: 10km
고도 5000ft 상공 구름 많음
01일 2100시부터 (UTC)
6kt
시정: 10km
고도 18000ft 상공 구름 조금

TAF: KISP 312328Z 0100/0124 14008KT P6SM SCT045 BKN250 FM010300 09006KT P6SM SCT030 BKN150 FM010600 06007KT P6SM SCT040 BKN070 FM010700 02009KT P6SM BKN025 FM011300 02012KT P6SM BKN040 FM011600 02012G19KT P6SM BKN050 FM012100 36006KT P6SM FEW180

4,000개 이상의 공항 관측 자료 및 예보 (METAR 및 TAF 보고).

지도상에서 검색 가능한 기상관측소가 노란 점과 빨간 점으로 표시되어 있습니다.

기상관측소 명을 보려면 표시 위로 마우스를 이동하세요.

날씨 관측과 예보를 보려면 클릭하세요.

지도 변경 : 확대하려면 엑스 표시가 있는 녹색 버튼, 축소하려면 빼기 표시가 있는 녹색 버튼, 다음 페이지의 지도를 보려면 녹색 화살표를 클릭하세요.


METAR-TAF: